Time;durP1;ratioP1;P1;durP2;ratioP2;P2;SDS_P1;SDS_P2;PMS_P1;PMS_P2;Temp;Humidity;BMP_temperature;BMP_pressure;BME280_temperature;BME280_humidity;BME280_pressure;Samples;Min_cycle;Max_cycle;Signal;HPM_P1;HPM_P2
2021/06/14 00:00:57;;;;;;;;;;;11.50;79.70;;;;;;5090644;28;20015;-61
2021/06/14 00:03:23;;;;;;;;;;;11.50;79.80;;;;;;5090726;28;19931;-61
2021/06/14 00:05:48;;;;;;;;;;;11.50;79.90;;;;;;5090611;28;19916;-62
2021/06/14 00:08:16;;;;;;;;;;;11.50;80.00;;;;;;5092175;28;19920;-61
2021/06/14 00:10:42;;;;;;;;;;;11.40;80.10;;;;;;5091136;28;20006;-61
2021/06/14 00:13:08;;;;;;;;;;;11.40;80.30;;;;;;5091537;28;19920;-62
2021/06/14 00:15:35;;;;;;;;;;;11.40;80.30;;;;;;5091073;28;20411;-61
2021/06/14 00:18:00;;;;;;;;;;;11.40;80.40;;;;;;5092267;28;19916;-61
2021/06/14 00:20:26;;;;;;;;;;;11.40;80.50;;;;;;5091697;28;20326;-61
2021/06/14 00:22:52;;;;;;;;;;;11.40;80.70;;;;;;5091952;28;19923;-62
2021/06/14 00:25:22;;;;;;;;;;;11.40;80.70;;;;;;5090293;28;19916;-61
2021/06/14 00:27:47;;;;;;;;;;;11.40;80.80;;;;;;5092198;28;19924;-61
2021/06/14 00:30:13;;;;;;;;;;;11.30;80.80;;;;;;5090806;28;19916;-61
2021/06/14 00:32:39;;;;;;;;;;;11.30;80.90;;;;;;5091570;28;19920;-60
2021/06/14 00:35:05;;;;;;;;;;;11.30;81.00;;;;;;5091530;28;19916;-60
2021/06/14 00:37:30;;;;;;;;;;;11.20;81.20;;;;;;5073448;28;19924;-62
2021/06/14 00:39:56;;;;;;;;;;;11.20;81.20;;;;;;5090803;28;19916;-60
2021/06/14 00:42:22;;;;;;;;;;;11.20;81.40;;;;;;5090708;28;19920;-61
2021/06/14 00:44:47;;;;;;;;;;;11.10;81.40;;;;;;5092244;28;20403;-61
2021/06/14 00:47:13;;;;;;;;;;;11.10;81.50;;;;;;5096085;28;19944;-61
2021/06/14 00:49:39;;;;;;;;;;;11.10;81.60;;;;;;5095825;28;19966;-60
2021/06/14 00:52:05;;;;;;;;;;;11.10;81.80;;;;;;5093949;28;20337;-60
2021/06/14 00:54:31;;;;;;;;;;;11.10;81.90;;;;;;5094461;28;19916;-60
2021/06/14 00:56:57;;;;;;;;;;;11.10;82.10;;;;;;5077264;28;20284;-61
2021/06/14 00:59:24;;;;;;;;;;;11.00;82.10;;;;;;5077682;28;19917;-60
2021/06/14 01:01:51;;;;;;;;;;;11.00;82.20;;;;;;5094261;28;19920;-61
2021/06/14 01:04:17;;;;;;;;;;;11.00;82.20;;;;;;5076760;28;19953;-60
2021/06/14 01:06:44;;;;;;;;;;;11.00;82.30;;;;;;5095708;28;20389;-61
2021/06/14 01:09:11;;;;;;;;;;;11.00;82.40;;;;;;5095378;28;20004;-61
2021/06/14 01:11:48;;;;;;;;;;;10.90;82.50;;;;;;5094019;28;20031;-61
2021/06/14 01:14:33;;;;;;;;;;;10.90;82.60;;;;;;5095287;28;20006;-61
2021/06/14 01:17:19;;;;;;;;;;;10.90;82.80;;;;;;5094023;28;19945;-60
2021/06/14 01:19:59;;;;;;;;;;;10.90;82.90;;;;;;5095162;28;19995;-61
2021/06/14 01:22:43;;;;;;;;;;;10.90;83.10;;;;;;5093892;28;20323;-61
2021/06/14 01:25:27;;;;;;;;;;;10.80;83.20;;;;;;5093334;28;20427;-60
2021/06/14 01:27:57;;;;;;;;;;;10.80;83.30;;;;;;5093364;28;20269;-60
2021/06/14 01:30:33;;;;;;;;;;;10.80;83.40;;;;;;5095249;28;20425;-60
2021/06/14 01:33:04;;;;;;;;;;;10.80;83.50;;;;;;5076868;28;20010;-61
2021/06/14 01:35:32;;;;;;;;;;;10.70;83.50;;;;;;5093850;28;19923;-61
2021/06/14 01:37:59;;;;;;;;;;;10.70;83.60;;;;;;5076925;28;19913;-60
2021/06/14 01:40:25;;;;;;;;;;;10.70;83.80;;;;;;5093276;28;19924;-60
2021/06/14 01:42:53;;;;;;;;;;;10.70;83.90;;;;;;5094594;28;19920;-60
2021/06/14 01:45:20;;;;;;;;;;;10.70;83.90;;;;;;5093302;28;19916;-60
2021/06/14 01:47:46;;;;;;;;;;;10.70;83.80;;;;;;5093486;28;20374;-60
2021/06/14 01:50:14;;;;;;;;;;;10.70;83.90;;;;;;5076773;28;19963;-60
2021/06/14 01:52:41;;;;;;;;;;;10.70;84.00;;;;;;5076193;28;20007;-60
2021/06/14 01:55:07;;;;;;;;;;;10.60;83.90;;;;;;5092877;28;19947;-60
2021/06/14 01:57:44;;;;;;;;;;;10.60;84.10;;;;;;5092790;28;19920;-60
2021/06/14 02:00:22;;;;;;;;;;;10.60;84.20;;;;;;5093253;28;19916;-60
2021/06/14 02:03:04;;;;;;;;;;;10.60;84.30;;;;;;5092569;28;19921;-60
2021/06/14 02:05:41;;;;;;;;;;;10.60;84.40;;;;;;5093088;28;19942;-61
2021/06/14 02:08:08;;;;;;;;;;;10.60;84.40;;;;;;5094140;28;19920;-60
2021/06/14 02:10:34;;;;;;;;;;;10.50;84.50;;;;;;5076231;28;19968;-60
2021/06/14 02:13:05;;;;;;;;;;;10.50;84.70;;;;;;5092638;28;19920;-60
2021/06/14 02:15:31;;;;;;;;;;;10.50;84.80;;;;;;5092514;28;19965;-60
2021/06/14 02:17:58;;;;;;;;;;;10.50;84.90;;;;;;5092803;28;19981;-61
2021/06/14 02:20:24;;;;;;;;;;;10.50;84.90;;;;;;5093859;28;19916;-61
2021/06/14 02:22:50;;;;;;;;;;;10.50;84.90;;;;;;5092386;28;19962;-60
2021/06/14 02:25:16;;;;;;;;;;;10.50;85.00;;;;;;5094158;28;19962;-60
2021/06/14 02:27:44;;;;;;;;;;;10.40;85.00;;;;;;5092214;28;19927;-61
2021/06/14 02:30:18;;;;;;;;;;;10.40;85.10;;;;;;5076698;28;19966;-60
2021/06/14 02:32:44;;;;;;;;;;;10.40;85.10;;;;;;5091779;28;20006;-60
2021/06/14 02:35:11;;;;;;;;;;;10.40;85.20;;;;;;5092315;28;20383;-60
2021/06/14 02:37:38;;;;;;;;;;;10.40;85.20;;;;;;5075245;28;19920;-60
2021/06/14 02:40:08;;;;;;;;;;;10.40;85.30;;;;;;5092497;28;19967;-60
2021/06/14 02:42:34;;;;;;;;;;;10.30;85.30;;;;;;5092344;28;19955;-60
2021/06/14 02:45:01;;;;;;;;;;;10.30;85.50;;;;;;5074981;28;20364;-60
2021/06/14 02:47:27;;;;;;;;;;;10.30;85.60;;;;;;5075466;28;19923;-61
2021/06/14 02:49:55;;;;;;;;;;;10.30;85.80;;;;;;5093180;28;19947;-60
2021/06/14 02:52:21;;;;;;;;;;;10.30;86.00;;;;;;5092048;28;19928;-60
2021/06/14 02:54:54;;;;;;;;;;;10.30;86.00;;;;;;5093214;28;20395;-61
2021/06/14 02:57:20;;;;;;;;;;;10.30;86.10;;;;;;5093346;28;19924;-61
2021/06/14 02:59:47;;;;;;;;;;;10.30;86.10;;;;;;5075382;28;19919;-60
2021/06/14 03:02:15;;;;;;;;;;;10.30;86.10;;;;;;5091432;28;19920;-60
2021/06/14 03:04:42;;;;;;;;;;;10.30;86.20;;;;;;5075099;28;19982;-62
2021/06/14 03:07:08;;;;;;;;;;;10.30;86.30;;;;;;5092662;28;20376;-60
2021/06/14 03:09:34;;;;;;;;;;;10.30;86.30;;;;;;5091619;28;19952;-61
2021/06/14 03:12:01;;;;;;;;;;;10.20;86.40;;;;;;5093152;28;19916;-60
2021/06/14 03:14:28;;;;;;;;;;;10.30;86.50;;;;;;5091427;28;19923;-66
2021/06/14 03:16:54;;;;;;;;;;;10.20;86.50;;;;;;5074696;28;19916;-60
2021/06/14 03:19:21;;;;;;;;;;;10.30;86.60;;;;;;5091943;28;20015;-60
2021/06/14 03:21:48;;;;;;;;;;;10.30;86.60;;;;;;5091165;28;19920;-60
2021/06/14 03:24:17;;;;;;;;;;;10.30;86.60;;;;;;5091480;28;19938;-60
2021/06/14 03:26:44;;;;;;;;;;;10.40;86.70;;;;;;5092651;28;19962;-61
2021/06/14 03:29:14;;;;;;;;;;;10.40;86.70;;;;;;5093038;28;20422;-60
2021/06/14 03:31:40;;;;;;;;;;;10.40;86.60;;;;;;5091376;28;19924;-60
2021/06/14 03:34:06;;;;;;;;;;;10.40;86.70;;;;;;5091939;28;19916;-61
2021/06/14 03:36:32;;;;;;;;;;;10.40;86.80;;;;;;5092557;28;20316;-60
2021/06/14 03:38:58;;;;;;;;;;;10.40;86.90;;;;;;5092161;28;19916;-61
2021/06/14 03:41:24;;;;;;;;;;;10.50;87.10;;;;;;5092418;28;20076;-60
2021/06/14 03:43:50;;;;;;;;;;;10.50;87.10;;;;;;5092338;28;20007;-61
2021/06/14 03:46:16;;;;;;;;;;;10.60;87.20;;;;;;5073958;28;19916;-61
2021/06/14 03:48:41;;;;;;;;;;;10.60;87.20;;;;;;5092440;28;19999;-61
2021/06/14 03:51:07;;;;;;;;;;;10.60;87.10;;;;;;5092482;28;20073;-60
2021/06/14 03:53:33;;;;;;;;;;;10.70;87.30;;;;;;5091842;28;19982;-60
2021/06/14 03:55:59;;;;;;;;;;;10.70;87.40;;;;;;5074400;28;19912;-60
2021/06/14 03:58:25;;;;;;;;;;;10.80;87.50;;;;;;5091980;28;20370;-60
2021/06/14 04:00:51;;;;;;;;;;;10.80;88.00;;;;;;5090726;28;19928;-61
2021/06/14 04:03:16;;;;;;;;;;;10.90;87.50;;;;;;5092027;28;19927;-61
2021/06/14 04:05:45;;;;;;;;;;;10.90;87.50;;;;;;5080781;28;19916;-60
2021/06/14 04:08:32;;;;;;;;;;;11.00;87.50;;;;;;5090853;28;20180;-61
2021/06/14 04:10:58;;;;;;;;;;;11.00;87.50;;;;;;5091416;28;20417;-60
2021/06/14 04:13:24;;;;;;;;;;;11.00;87.50;;;;;;5091617;28;19958;-60
2021/06/14 04:15:49;;;;;;;;;;;11.10;87.60;;;;;;5090597;28;19962;-60
2021/06/14 04:18:15;;;;;;;;;;;11.10;87.60;;;;;;5091571;28;19920;-60
2021/06/14 04:20:40;;;;;;;;;;;11.20;87.80;;;;;;5091849;28;19948;-60
2021/06/14 04:23:06;;;;;;;;;;;11.20;87.80;;;;;;5089931;28;20292;-60
2021/06/14 04:25:32;;;;;;;;;;;11.30;87.80;;;;;;5090836;28;19969;-60
2021/06/14 04:27:57;;;;;;;;;;;11.40;87.90;;;;;;5090660;28;19916;-60
2021/06/14 04:30:23;;;;;;;;;;;11.50;88.20;;;;;;5091381;28;19927;-60
2021/06/14 04:32:48;;;;;;;;;;;11.60;88.10;;;;;;5090199;28;19920;-60
2021/06/14 04:35:14;;;;;;;;;;;11.70;88.00;;;;;;5091429;28;19918;-60
2021/06/14 04:37:40;;;;;;;;;;;11.80;87.90;;;;;;5090905;28;19920;-61
2021/06/14 04:40:06;;;;;;;;;;;11.90;87.90;;;;;;5073682;28;19994;-61
2021/06/14 04:42:32;;;;;;;;;;;11.90;87.90;;;;;;5091268;28;19916;-61
2021/06/14 04:44:57;;;;;;;;;;;12.00;88.00;;;;;;5091177;28;20458;-61
2021/06/14 04:47:23;;;;;;;;;;;12.10;88.00;;;;;;5091629;28;19966;-61
2021/06/14 04:49:49;;;;;;;;;;;12.20;88.00;;;;;;5089857;28;20362;-61
2021/06/14 04:52:14;;;;;;;;;;;12.30;88.00;;;;;;5083303;28;20314;-61
2021/06/14 04:54:40;;;;;;;;;;;12.50;88.10;;;;;;5069431;28;19970;-61
2021/06/14 04:57:06;;;;;;;;;;;12.60;88.10;;;;;;5070120;28;19952;-61
2021/06/14 04:59:32;;;;;;;;;;;12.70;88.10;;;;;;5071437;28;20332;-61
2021/06/14 05:01:57;;;;;;;;;;;12.80;88.00;;;;;;5070756;28;19920;-61
2021/06/14 05:04:23;;;;;;;;;;;12.90;88.00;;;;;;5053200;28;20273;-61
2021/06/14 05:06:48;;;;;;;;;;;13.10;88.00;;;;;;5079253;28;19916;-61
2021/06/14 05:09:14;;;;;;;;;;;13.30;88.00;;;;;;5087575;28;19923;-61
2021/06/14 05:11:39;;;;;;;;;;;13.40;87.80;;;;;;5090200;28;19917;-61
2021/06/14 05:14:05;;;;;;;;;;;13.60;87.70;;;;;;5089163;28;20341;-61
2021/06/14 05:16:31;;;;;;;;;;;13.80;87.50;;;;;;5073332;28;19916;-61
2021/06/14 05:18:57;;;;;;;;;;;14.00;87.40;;;;;;5089979;28;19916;-61
2021/06/14 05:21:23;;;;;;;;;;;14.10;87.50;;;;;;5091142;28;19951;-61
2021/06/14 05:23:48;;;;;;;;;;;14.30;86.80;;;;;;5072789;28;19951;-61
2021/06/14 05:26:14;;;;;;;;;;;14.50;86.60;;;;;;5088648;28;19928;-62
2021/06/14 05:28:40;;;;;;;;;;;14.70;86.40;;;;;;5083548;28;19979;-61
2021/06/14 05:31:05;;;;;;;;;;;14.90;86.10;;;;;;5072440;28;20347;-61
2021/06/14 05:33:31;;;;;;;;;;;15.10;85.70;;;;;;5072379;28;19925;-62
2021/06/14 05:35:56;;;;;;;;;;;15.30;85.30;;;;;;5074706;28;19920;-61
2021/06/14 05:38:22;;;;;;;;;;;15.40;84.90;;;;;;5073044;28;19924;-61
2021/06/14 05:40:48;;;;;;;;;;;15.60;84.70;;;;;;5074188;28;20375;-62
2021/06/14 05:43:13;;;;;;;;;;;16.00;85.00;;;;;;5073912;28;19995;-61
2021/06/14 05:45:39;;;;;;;;;;;17.00;88.70;;;;;;5074192;28;19952;-61
2021/06/14 05:48:05;;;;;;;;;;;18.50;91.10;;;;;;5072807;28;19981;-61
2021/06/14 05:50:31;;;;;;;;;;;20.00;90.50;;;;;;5074234;28;19916;-61
2021/06/14 05:52:56;;;;;;;;;;;21.00;87.00;;;;;;5072061;28;19954;-61
2021/06/14 05:55:22;;;;;;;;;;;21.90;84.40;;;;;;5074157;28;19912;-61
2021/06/14 05:57:48;;;;;;;;;;;22.40;79.70;;;;;;5074110;28;19964;-61
2021/06/14 06:00:13;;;;;;;;;;;23.10;77.60;;;;;;5073577;28;20329;-62
2021/06/14 06:02:41;;;;;;;;;;;24.00;75.30;;;;;;5073941;28;19921;-61
2021/06/14 06:05:07;;;;;;;;;;;25.00;73.80;;;;;;5073682;28;20058;-63
2021/06/14 06:07:34;;;;;;;;;;;26.20;72.90;;;;;;5073837;28;19927;-61
2021/06/14 06:09:59;;;;;;;;;;;27.30;70.10;;;;;;5073767;28;19923;-61
2021/06/14 06:12:25;;;;;;;;;;;28.30;66.60;;;;;;5073140;28;19920;-62
2021/06/14 06:14:51;;;;;;;;;;;28.90;61.50;;;;;;5073472;28;20304;-62
2021/06/14 06:17:16;;;;;;;;;;;29.50;59.30;;;;;;5072531;28;19952;-62
2021/06/14 06:19:42;;;;;;;;;;;30.00;57.40;;;;;;5073277;28;19920;-62
2021/06/14 06:22:07;;;;;;;;;;;30.60;55.40;;;;;;5073086;28;19922;-61
2021/06/14 06:24:33;;;;;;;;;;;31.10;52.70;;;;;;5071749;28;20447;-62
2021/06/14 06:26:59;;;;;;;;;;;31.70;51.00;;;;;;5073114;28;20007;-62
2021/06/14 06:29:25;;;;;;;;;;;32.20;49.20;;;;;;5071943;28;19920;-62
2021/06/14 06:31:51;;;;;;;;;;;32.80;47.80;;;;;;5072542;28;20296;-62
2021/06/14 06:34:16;;;;;;;;;;;33.40;46.10;;;;;;5073013;28;19928;-62
2021/06/14 06:36:42;;;;;;;;;;;33.80;43.20;;;;;;5072985;28;19931;-62
2021/06/14 06:39:07;;;;;;;;;;;34.20;42.20;;;;;;5071448;28;19921;-62
2021/06/14 06:41:33;;;;;;;;;;;34.60;41.10;;;;;;5072175;28;19952;-62
2021/06/14 06:43:59;;;;;;;;;;;35.20;40.10;;;;;;5072795;28;19916;-62
2021/06/14 06:46:24;;;;;;;;;;;35.70;38.20;;;;;;5072834;28;20277;-62
2021/06/14 06:48:50;;;;;;;;;;;36.00;37.00;;;;;;5071903;28;19995;-62
2021/06/14 06:51:15;;;;;;;;;;;36.30;36.20;;;;;;5072765;28;19999;-63
2021/06/14 06:53:41;;;;;;;;;;;36.60;35.10;;;;;;5071502;28;19920;-63
2021/06/14 06:56:07;;;;;;;;;;;36.90;34.10;;;;;;5072951;28;19919;-63
2021/06/14 06:58:32;;;;;;;;;;;37.20;33.50;;;;;;5072755;28;19924;-63
2021/06/14 07:00:58;;;;;;;;;;;37.70;32.90;;;;;;5072407;28;20369;-63
2021/06/14 07:03:24;;;;;;;;;;;38.10;31.50;;;;;;5054681;28;19921;-62
2021/06/14 07:05:51;;;;;;;;;;;38.40;30.90;;;;;;5072129;28;21402;-62
2021/06/14 07:08:16;;;;;;;;;;;38.60;29.90;;;;;;5087902;28;19920;-63
2021/06/14 07:10:43;;;;;;;;;;;38.70;29.60;;;;;;5092253;28;20297;-63
2021/06/14 07:13:09;;;;;;;;;;;39.20;29.50;;;;;;5092067;28;19920;-62
2021/06/14 07:15:35;;;;;;;;;;;39.70;28.80;;;;;;5092614;28;20368;-62
2021/06/14 07:18:00;;;;;;;;;;;39.90;28.30;;;;;;5091072;28;19916;-62
2021/06/14 07:20:28;;;;;;;;;;;40.20;28.10;;;;;;5092765;28;19916;-63
2021/06/14 07:22:53;;;;;;;;;;;40.50;27.70;;;;;;5092479;28;20399;-65
2021/06/14 07:25:19;;;;;;;;;;;40.80;27.10;;;;;;5091083;28;19923;-62
2021/06/14 07:27:45;;;;;;;;;;;41.10;26.90;;;;;;5092729;28;19948;-62
2021/06/14 07:30:14;;;;;;;;;;;41.50;26.60;;;;;;5092692;28;19947;-64
2021/06/14 07:32:41;;;;;;;;;;;41.70;26.10;;;;;;5090879;28;19920;-63
2021/06/14 07:35:06;;;;;;;;;;;42.10;26.10;;;;;;5090170;28;19924;-65
2021/06/14 07:37:32;;;;;;;;;;;42.30;25.70;;;;;;5090640;28;19939;-65
2021/06/14 07:39:58;;;;;;;;;;;42.60;25.60;;;;;;5073822;28;19916;-65
2021/06/14 07:42:24;;;;;;;;;;;43.10;25.30;;;;;;5092189;28;20384;-65
2021/06/14 07:44:49;;;;;;;;;;;43.20;24.70;;;;;;5091526;28;19959;-65
2021/06/14 07:47:15;;;;;;;;;;;43.40;24.70;;;;;;5092367;28;19916;-66
2021/06/14 07:49:42;;;;;;;;;;;43.70;24.50;;;;;;5091788;28;19959;-65
2021/06/14 07:52:08;;;;;;;;;;;44.10;24.20;;;;;;5090751;28;19924;-65
2021/06/14 07:54:34;;;;;;;;;;;44.40;24.10;;;;;;5091479;28;19920;-66
2021/06/14 07:56:59;;;;;;;;;;;44.70;23.80;;;;;;5091881;28;20288;-66
2021/06/14 07:59:25;;;;;;;;;;;44.70;23.50;;;;;;5090819;28;19966;-65
2021/06/14 08:01:51;;;;;;;;;;;45.00;23.30;;;;;;5091738;28;19920;-66
2021/06/14 08:04:17;;;;;;;;;;;45.20;23.40;;;;;;5089856;28;19978;-66
2021/06/14 08:06:43;;;;;;;;;;;45.60;23.20;;;;;;5092159;28;20018;-66
2021/06/14 08:09:12;;;;;;;;;;;46.00;22.80;;;;;;5091514;28;20002;-66
2021/06/14 08:11:38;;;;;;;;;;;45.90;22.40;;;;;;5092028;28;19958;-65
2021/06/14 08:14:05;;;;;;;;;;;46.00;22.60;;;;;;5091085;28;19963;-65
2021/06/14 08:16:31;;;;;;;;;;;46.20;22.30;;;;;;5090201;28;19951;-66
2021/06/14 08:19:06;;;;;;;;;;;46.30;22.10;;;;;;5091779;28;19916;-66
2021/06/14 08:21:48;;;;;;;;;;;46.50;22.00;;;;;;5091294;28;19923;-65
2021/06/14 08:26:58;;;;;;;;;;;46.80;21.80;;;;;;5091472;28;20372;-67
2021/06/14 08:29:23;;;;;;;;;;;46.90;21.60;;;;;;5091844;28;19954;-64
2021/06/14 08:31:49;;;;;;;;;;;47.20;21.60;;;;;;5090001;28;19916;-67
2021/06/14 08:34:15;;;;;;;;;;;47.40;21.50;;;;;;5091260;28;19916;-66
2021/06/14 08:36:41;;;;;;;;;;;47.60;21.50;;;;;;5090349;28;19966;-63
2021/06/14 08:39:10;;;;;;;;;;;48.10;21.60;;;;;;5091132;28;19942;-64
2021/06/14 08:41:37;;;;;;;;;;;48.30;21.10;;;;;;5091523;28;19916;-64
2021/06/14 08:44:03;;;;;;;;;;;48.40;21.10;;;;;;5089413;28;19927;-67
2021/06/14 08:46:29;;;;;;;;;;;48.70;20.80;;;;;;5091508;28;19912;-66
2021/06/14 08:48:54;;;;;;;;;;;48.60;20.90;;;;;;5091564;28;19923;-66
2021/06/14 08:51:20;;;;;;;;;;;48.90;21.10;;;;;;5090906;28;21759;-67
2021/06/14 08:53:51;;;;;;;;;;;49.20;20.90;;;;;;5089666;28;20015;-66
2021/06/14 08:56:19;;;;;;;;;;;49.40;20.50;;;;;;5090982;28;19938;-68
2021/06/14 08:58:46;;;;;;;;;;;49.40;20.50;;;;;;5091267;28;20318;-66
2021/06/14 09:01:12;;;;;;;;;;;49.60;20.60;;;;;;5091010;28;20014;-67
2021/06/14 09:03:37;;;;;;;;;;;49.70;20.20;;;;;;5090527;28;19955;-67
2021/06/14 09:06:03;;;;;;;;;;;49.70;20.40;;;;;;5094145;28;20295;-67
2021/06/14 09:08:28;;;;;;;;;;;49.60;20.20;;;;;;5093733;28;19923;-68
2021/06/14 09:10:54;;;;;;;;;;;49.90;20.40;;;;;;5095299;28;19912;-68
2021/06/14 09:13:24;;;;;;;;;;;50.30;20.20;;;;;;5094990;28;20007;-68
2021/06/14 09:15:52;;;;;;;;;;;50.70;20.30;;;;;;5094781;28;19917;-68
2021/06/14 09:18:17;;;;;;;;;;;51.00;20.00;;;;;;5095060;28;19973;-69
2021/06/14 09:20:52;;;;;;;;;;;51.00;19.70;;;;;;5094706;28;20420;-69
2021/06/14 09:23:18;;;;;;;;;;;50.80;19.70;;;;;;5093199;28;19920;-69
2021/06/14 09:25:46;;;;;;;;;;;50.80;19.80;;;;;;5076652;28;19924;-66
2021/06/14 09:28:12;;;;;;;;;;;51.00;19.70;;;;;;5094573;28;19912;-69
2021/06/14 09:30:37;;;;;;;;;;;51.40;19.80;;;;;;5094875;28;20406;-69
2021/06/14 09:33:09;;;;;;;;;;;51.30;19.40;;;;;;5094717;28;19920;-68
2021/06/14 09:35:39;;;;;;;;;;;51.30;19.60;;;;;;5094509;28;19917;-67
2021/06/14 09:38:06;;;;;;;;;;;50.70;19.20;;;;;;5092843;28;19920;-68
2021/06/14 09:40:33;;;;;;;;;;;50.10;19.60;;;;;;5094356;28;19963;-69
2021/06/14 09:42:59;;;;;;;;;;;50.10;19.70;;;;;;5094310;28;19928;-69
2021/06/14 09:45:25;;;;;;;;;;;50.20;19.80;;;;;;5093069;28;19970;-69
2021/06/14 09:47:54;;;;;;;;;;;50.50;19.90;;;;;;5093387;28;19916;-68
2021/06/14 09:50:27;;;;;;;;;;;50.90;19.70;;;;;;5092988;28;19912;-68
2021/06/14 09:53:09;;;;;;;;;;;51.40;19.90;;;;;;5092778;28;19990;-66
2021/06/14 09:55:35;;;;;;;;;;;51.90;19.60;;;;;;5093164;28;19955;-69
2021/06/14 09:58:18;;;;;;;;;;;51.90;19.50;;;;;;5094197;28;19960;-68
2021/06/14 10:00:50;;;;;;;;;;;52.00;19.60;;;;;;5093920;28;19920;-67
2021/06/14 10:03:16;;;;;;;;;;;52.40;19.60;;;;;;5094058;28;19928;-66
2021/06/14 10:05:50;;;;;;;;;;;52.60;19.50;;;;;;5094160;28;19994;-65
2021/06/14 10:08:23;;;;;;;;;;;53.00;19.60;;;;;;5092341;28;20007;-68
2021/06/14 10:10:48;;;;;;;;;;;53.30;19.30;;;;;;5094107;28;19916;-65
2021/06/14 10:13:15;;;;;;;;;;;53.20;19.40;;;;;;5093451;28;19946;-68
2021/06/14 10:15:41;;;;;;;;;;;53.10;19.30;;;;;;5093925;28;20291;-66
2021/06/14 10:18:11;;;;;;;;;;;52.90;19.20;;;;;;5093785;28;20490;-65
2021/06/14 10:20:37;;;;;;;;;;;53.10;19.40;;;;;;5093597;28;19956;-66
2021/06/14 10:23:02;;;;;;;;;;;53.30;19.40;;;;;;5093411;28;19927;-61
2021/06/14 10:25:28;;;;;;;;;;;53.80;19.40;;;;;;5092013;28;20284;-61
2021/06/14 10:27:54;;;;;;;;;;;53.90;19.20;;;;;;5093892;28;20376;-60
2021/06/14 10:30:21;;;;;;;;;;;54.00;19.20;;;;;;5093796;28;19931;-60
2021/06/14 10:32:47;;;;;;;;;;;53.60;19.00;;;;;;5091461;28;19920;-61
2021/06/14 10:35:14;;;;;;;;;;;53.30;19.10;;;;;;5093635;28;20288;-61
2021/06/14 10:37:47;;;;;;;;;;;53.40;19.20;;;;;;5098549;22;20011;-60
2021/06/14 10:40:15;;;;;;;;;;;53.90;19.30;;;;;;5053477;28;19997;-59
2021/06/14 10:42:41;;;;;;;;;;;54.50;19.20;;;;;;5051516;28;19924;-60
2021/06/14 10:45:11;;;;;;;;;;;54.60;19.00;;;;;;5053073;28;19917;-59
2021/06/14 10:47:38;;;;;;;;;;;54.50;18.90;;;;;;5052822;28;19917;-59
2021/06/14 10:50:05;;;;;;;;;;;54.50;19.00;;;;;;5052594;28;19913;-59
2021/06/14 10:52:38;;;;;;;;;;;54.40;18.80;;;;;;5052955;28;20269;-59
2021/06/14 10:55:11;;;;;;;;;;;54.20;18.90;;;;;;5051631;28;19923;-59
2021/06/14 10:57:36;;;;;;;;;;;54.50;19.00;;;;;;5052661;28;19921;-59
2021/06/14 11:00:03;;;;;;;;;;;54.50;18.70;;;;;;5052926;28;19970;-59
2021/06/14 11:02:29;;;;;;;;;;;53.90;18.80;;;;;;5052501;28;19921;-60
2021/06/14 11:05:07;;;;;;;;;;;53.00;18.70;;;;;;5052484;28;19917;-59
2021/06/14 11:07:32;;;;;;;;;;;52.20;18.90;;;;;;5052373;28;20323;-59
2021/06/14 11:09:58;;;;;;;;;;;52.00;19.10;;;;;;5052763;28;19920;-59
2021/06/14 11:12:25;;;;;;;;;;;51.80;19.20;;;;;;5052810;28;19967;-59
2021/06/14 11:14:51;;;;;;;;;;;51.70;19.20;;;;;;5052076;28;20316;-59
2021/06/14 11:17:17;;;;;;;;;;;51.90;19.40;;;;;;5052796;28;20011;-58
2021/06/14 11:19:44;;;;;;;;;;;51.90;19.10;;;;;;5052001;28;20357;-59
2021/06/14 11:22:09;;;;;;;;;;;51.40;19.40;;;;;;5052484;28;20395;-59
2021/06/14 11:24:36;;;;;;;;;;;51.50;19.40;;;;;;5052153;28;19917;-58
2021/06/14 11:27:03;;;;;;;;;;;51.40;19.50;;;;;;5051762;28;19920;-59
2021/06/14 11:29:39;;;;;;;;;;;51.30;19.50;;;;;;5051939;28;20317;-59
2021/06/14 11:32:05;;;;;;;;;;;51.00;19.20;;;;;;5051904;28;19921;-58
2021/06/14 11:34:57;;;;;;;;;;;49.40;19.30;;;;;;5052029;28;19950;-58
2021/06/14 11:37:35;;;;;;;;;;;47.30;19.50;;;;;;5047719;28;19921;-58
2021/06/14 11:40:01;;;;;;;;;;;44.60;20.00;;;;;;5052046;28;20011;-58
2021/06/14 11:42:28;;;;;;;;;;;42.20;20.50;;;;;;5051684;28;20028;-58
2021/06/14 11:44:55;;;;;;;;;;;40.20;21.30;;;;;;5051965;28;19947;-58
2021/06/14 11:47:24;;;;;;;;;;;38.70;22.20;;;;;;5050466;28;20405;-58
2021/06/14 11:49:50;;;;;;;;;;;38.00;22.90;;;;;;5051596;28;20020;-58
2021/06/14 11:52:17;;;;;;;;;;;38.20;23.80;;;;;;5049380;28;19954;-58
2021/06/14 11:54:43;;;;;;;;;;;38.30;23.20;;;;;;5033029;28;19967;-58
2021/06/14 11:57:09;;;;;;;;;;;38.00;23.30;;;;;;5051253;28;19952;-58
2021/06/14 11:59:35;;;;;;;;;;;37.70;23.90;;;;;;5049362;28;20396;-58
2021/06/14 12:02:02;;;;;;;;;;;37.70;24.10;;;;;;5048022;28;19929;-58
2021/06/14 12:04:27;;;;;;;;;;;37.60;24.30;;;;;;5049432;28;20400;-58
2021/06/14 12:06:53;;;;;;;;;;;37.40;24.40;;;;;;5031443;28;19923;-58
2021/06/14 12:09:27;;;;;;;;;;;37.20;24.30;;;;;;5030674;28;20637;-57
2021/06/14 12:12:03;;;;;;;;;;;36.30;24.40;;;;;;5050358;28;19943;-59
2021/06/14 12:14:29;;;;;;;;;;;35.00;24.80;;;;;;5051012;28;19932;-58
2021/06/14 12:16:56;;;;;;;;;;;33.90;25.40;;;;;;5051217;28;19923;-58
2021/06/14 12:19:22;;;;;;;;;;;33.10;26.60;;;;;;5050462;28;19975;-57
2021/06/14 12:21:52;;;;;;;;;;;32.70;26.60;;;;;;5051030;28;19917;-57
2021/06/14 12:24:17;;;;;;;;;;;32.30;27.00;;;;;;5050427;28;19921;-58
2021/06/14 12:26:43;;;;;;;;;;;32.30;27.30;;;;;;5033460;28;19923;-58
2021/06/14 12:29:19;;;;;;;;;;;32.20;27.50;;;;;;5050877;28;19921;-58
2021/06/14 12:31:45;;;;;;;;;;;32.20;27.80;;;;;;5050656;28;19971;-58
2021/06/14 12:34:10;;;;;;;;;;;32.00;28.10;;;;;;5050733;28;19917;-58
2021/06/14 12:36:36;;;;;;;;;;;31.90;28.30;;;;;;5032958;28;19923;-58
2021/06/14 12:39:02;;;;;;;;;;;31.60;28.50;;;;;;5049627;28;19921;-58
2021/06/14 12:41:28;;;;;;;;;;;31.40;28.60;;;;;;5049824;28;19917;-58
2021/06/14 12:43:53;;;;;;;;;;;31.10;29.30;;;;;;5049158;28;19929;-58
2021/06/14 12:46:29;;;;;;;;;;;30.90;29.10;;;;;;5049961;28;19913;-57
2021/06/14 12:48:55;;;;;;;;;;;30.70;29.20;;;;;;5031588;28;20364;-58
2021/06/14 12:51:30;;;;;;;;;;;30.50;29.60;;;;;;5050065;28;20003;-57
2021/06/14 12:53:56;;;;;;;;;;;30.40;30.00;;;;;;5049158;28;20023;-58
2021/06/14 12:56:22;;;;;;;;;;;30.40;30.00;;;;;;5032393;28;20013;-58
2021/06/14 12:58:48;;;;;;;;;;;30.30;30.00;;;;;;5031764;28;20432;-57
2021/06/14 13:01:15;;;;;;;;;;;30.30;30.30;;;;;;5046226;28;19960;-57
2021/06/14 13:03:41;;;;;;;;;;;30.30;30.50;;;;;;5048265;28;19968;-57
2021/06/14 13:06:07;;;;;;;;;;;30.20;30.30;;;;;;5049195;28;19917;-58
2021/06/14 13:08:39;;;;;;;;;;;30.00;30.50;;;;;;5049532;28;20486;-60
2021/06/14 13:11:05;;;;;;;;;;;29.80;30.70;;;;;;5046427;28;19988;-57
2021/06/14 13:13:32;;;;;;;;;;;29.60;30.80;;;;;;5044675;28;20482;-56
2021/06/14 13:16:08;;;;;;;;;;;29.40;31.10;;;;;;5047310;28;19924;-56
2021/06/14 13:18:35;;;;;;;;;;;29.30;31.60;;;;;;5049412;28;19916;-56
2021/06/14 13:21:07;;;;;;;;;;;29.20;31.90;;;;;;5049586;28;19955;-56
2021/06/14 13:23:33;;;;;;;;;;;29.20;32.00;;;;;;5030486;28;19936;-57
2021/06/14 13:26:00;;;;;;;;;;;29.10;31.90;;;;;;5047891;28;19916;-56
2021/06/14 13:28:37;;;;;;;;;;;28.90;32.10;;;;;;5029353;28;20388;-56
2021/06/14 13:31:04;;;;;;;;;;;28.80;32.50;;;;;;5048886;28;19921;-58
2021/06/14 13:36:09;;;;;;;;;;;28.80;32.80;;;;;;5048055;28;20312;-58
2021/06/14 13:38:35;;;;;;;;;;;28.80;32.70;;;;;;5017800;28;748598;-56
2021/06/14 13:41:01;;;;;;;;;;;28.80;33.10;;;;;;5031674;28;19917;-58
2021/06/14 13:43:29;;;;;;;;;;;28.90;33.10;;;;;;5048359;28;19940;-57
2021/06/14 13:45:55;;;;;;;;;;;28.90;33.20;;;;;;5049525;28;19924;-58
2021/06/14 13:48:21;;;;;;;;;;;28.90;33.50;;;;;;5031378;28;19956;-60
2021/06/14 13:50:49;;;;;;;;;;;29.00;33.50;;;;;;5049245;28;19960;-57
2021/06/14 13:53:15;;;;;;;;;;;29.00;33.60;;;;;;5034098;28;20467;-59
2021/06/14 13:55:55;;;;;;;;;;;29.00;33.60;;;;;;5051316;28;20003;-60
2021/06/14 13:58:37;;;;;;;;;;;29.00;33.80;;;;;;5052448;28;19916;-58
2021/06/14 14:01:09;;;;;;;;;;;28.90;33.50;;;;;;5052987;28;20007;-58
2021/06/14 14:03:35;;;;;;;;;;;28.80;33.50;;;;;;5051992;28;19920;-58
2021/06/14 14:06:01;;;;;;;;;;;28.80;33.50;;;;;;5053938;28;19970;-58
2021/06/14 14:08:26;;;;;;;;;;;28.80;33.50;;;;;;5053399;28;19917;-60
2021/06/14 14:10:53;;;;;;;;;;;28.70;33.80;;;;;;5053725;28;20011;-58
2021/06/14 14:13:19;;;;;;;;;;;28.80;33.90;;;;;;5052280;28;19946;-58
2021/06/14 14:15:45;;;;;;;;;;;28.80;34.00;;;;;;5052611;28;19924;-58
2021/06/14 14:18:11;;;;;;;;;;;29.00;34.10;;;;;;5053502;28;20395;-58
2021/06/14 14:20:39;;;;;;;;;;;29.00;34.10;;;;;;5053581;28;19917;-57
2021/06/14 14:23:05;;;;;;;;;;;29.10;34.00;;;;;;5035006;28;20300;-58